Packwaukee, WI (53953)

1:12 PM CDT on September 03, 2015 (GMT -0500)
WIDOT | | Change Station
CLOSE
Current Station
Personal Weather Station
Location: Packwaukee, WI
Elevation: 850 ft
Nearby Weather Stations

Elev 850 ft 43.79 °N, 89.48 °W | Updated 58 minutes ago

Scattered Clouds
Scattered Clouds
76.0 °F
Feels Like 77 °F
N
7.0
Wind Variable Wind from NNE
Gusts 10.0 mph

Today
High -- | Low -- °F
--% Chance of Precip.
Yesterday
High -- | Low -- °F
Precip. -- in
6:23 AM 7:30 PM
Waning Gibbous, 68% visible
Pressure 29.94 in
Visibility 10.0 miles
Clouds Scattered Clouds 1700 ft
Heat Index 77 °F
Dew Point 68.0 °F
Humidity 77%
Rainfall in
Snow Depth Not available.
UV 7 out of 12
Pollen 4.80 out of 12
Air Quality Not available.
Flu Activity Not available.
METAR KY50 031756Z AUTO 03006KT 10SM SCT017 24/19 A2997 RMK AO2 TSNO 51004 T02440194 10244 20200 SLP139
Pressure 29.94 in
Visibility 10.0 miles
Clouds Scattered Clouds 1700 ft
Heat Index 77 °F
Dew Point 68.0 °F
Humidity 77%
Rainfall in
Snow Depth Not available.
UV 7 out of 12
Pollen 4.80 out of 12
Air Quality Not available.
Flu Activity Not available.
METAR KY50 031756Z AUTO 03006KT 10SM SCT017 24/19 A2997 RMK AO2 TSNO 51004 T02440194 10244 20200 SLP139

10-Day Weather Forecast

×

Almanac

Astronomy

Sep. 03, 2015 Rise Set
Actual Time
Civil Twilight
Nautical Twilight
Astronomical Twilight
Moon
Length of Visible Light
Length of Day
Tomorrow will be .
, % of the Moon is Illuminated

Today's Extremes

State Highs State Lows

Community

WunderPhotos

Upload Photos

1,851,994 photos uploaded!

WunderBlogs® & News

Nearby

Air Quality

  Air Quality AQ Index Pollutant
Not available.

Snow Depth

Station Depth Elevation

Earthquake Activity

City Distance Mag. Time & Date
Minimum magnitude displayed is 2.5.

Coastal Water Temperatures

Place Temperature

Stations

Nearby Weather Stations

Station Location Temp. Windchill Dew Point Humidity Wind Precip. Elev Updated Type